createdAt,value
2018-07-22T00:22:26.037Z,8.30
2018-07-22T00:24:55.275Z,9.77
2018-07-22T00:27:24.548Z,10.40
2018-07-22T00:29:53.807Z,9.77
2018-07-22T00:32:23.044Z,9.50
2018-07-22T00:34:52.286Z,10.87
2018-07-22T00:37:21.523Z,12.87
2018-07-22T00:39:50.770Z,12.13
2018-07-22T00:42:20.105Z,11.30
2018-07-22T00:44:49.352Z,8.47
2018-07-22T00:47:18.915Z,8.73
2018-07-22T00:49:48.202Z,9.90
2018-07-22T00:52:17.842Z,10.83
2018-07-22T00:54:47.146Z,10.40
2018-07-22T00:57:16.404Z,10.53
2018-07-22T00:59:45.720Z,10.83
2018-07-22T01:02:14.893Z,12.30
2018-07-22T01:04:44.216Z,14.47
2018-07-22T01:07:13.603Z,14.07
2018-07-22T01:10:14.726Z,11.70
2018-07-22T01:12:44.045Z,12.13
2018-07-22T01:15:13.259Z,11.10
2018-07-22T01:17:42.512Z,12.87
2018-07-22T01:20:11.831Z,12.33
2018-07-22T01:22:40.829Z,13.10
2018-07-22T01:25:10.080Z,13.33
2018-07-22T01:27:39.321Z,12.13
2018-07-22T01:30:09.978Z,13.33
2018-07-22T01:32:39.732Z,15.45
2018-07-22T01:35:09.149Z,13.17
2018-07-22T01:37:38.423Z,12.83
2018-07-22T01:40:07.985Z,12.07
2018-07-22T01:42:37.265Z,12.17
2018-07-22T01:45:06.594Z,14.50
2018-07-22T01:47:35.607Z,11.70
2018-07-22T01:50:05.255Z,12.53
2018-07-22T01:52:34.531Z,13.37
2018-07-22T01:55:03.823Z,12.70
2018-07-22T01:57:33.014Z,15.67
2018-07-22T02:00:02.304Z,11.30
2018-07-22T02:02:31.568Z,11.30
2018-07-22T02:05:00.834Z,11.10
2018-07-22T02:07:30.281Z,13.27
2018-07-22T02:09:59.670Z,12.28
2018-07-22T02:12:28.940Z,12.60
2018-07-22T02:14:58.199Z,12.97
2018-07-22T02:17:27.591Z,10.63
2018-07-22T02:19:56.885Z,10.80
2018-07-22T02:22:26.180Z,11.47
2018-07-22T02:24:55.450Z,11.83
2018-07-22T02:27:24.808Z,10.17
2018-07-22T02:29:54.053Z,11.90
2018-07-22T02:32:23.323Z,11.00
2018-07-22T02:34:52.578Z,11.53
2018-07-22T02:37:21.875Z,9.80
2018-07-22T02:39:51.169Z,10.60
2018-07-22T02:42:20.479Z,10.50
2018-07-22T02:44:49.724Z,10.50
2018-07-22T02:47:19.009Z,10.47
2018-07-22T02:49:48.340Z,10.60
2018-07-22T02:52:17.689Z,11.23
2018-07-22T02:54:47.044Z,10.23
2018-07-22T02:57:16.276Z,11.75
2018-07-22T02:59:45.606Z,11.63
2018-07-22T03:02:14.859Z,11.43
2018-07-22T03:04:44.127Z,11.63
2018-07-22T03:07:13.408Z,11.53
2018-07-22T03:09:42.995Z,11.80
2018-07-22T03:12:12.281Z,13.57
2018-07-22T03:14:44.402Z,12.33
2018-07-22T03:17:13.959Z,12.23
2018-07-22T03:19:43.196Z,12.65
2018-07-22T03:22:12.430Z,12.00
2018-07-22T03:24:41.650Z,12.17
2018-07-22T03:27:11.066Z,11.20
2018-07-22T03:29:40.299Z,11.57
2018-07-22T03:32:09.580Z,12.73
2018-07-22T03:34:38.885Z,10.40
2018-07-22T03:37:08.378Z,11.03
2018-07-22T03:39:37.630Z,12.17
2018-07-22T03:42:06.969Z,12.60
2018-07-22T03:44:36.211Z,14.53
2018-07-22T03:47:05.634Z,13.60
2018-07-22T03:49:36.028Z,14.05
2018-07-22T03:52:05.250Z,14.60
2018-07-22T03:54:34.506Z,14.35
2018-07-22T03:57:03.811Z,18.27
2018-07-22T03:59:33.050Z,15.47
2018-07-22T04:02:02.315Z,13.27
2018-07-22T04:04:31.606Z,13.70
2018-07-22T04:07:00.907Z,12.87
2018-07-22T04:09:30.103Z,12.63
2018-07-22T04:11:59.354Z,15.13
2018-07-22T04:14:28.583Z,12.00
2018-07-22T04:16:57.948Z,13.73
2018-07-22T04:19:27.221Z,13.20
2018-07-22T04:21:56.512Z,16.37
2018-07-22T04:24:25.802Z,16.07
2018-07-22T04:26:55.069Z,15.57
2018-07-22T04:29:24.318Z,16.62
2018-07-22T04:31:53.603Z,16.37
2018-07-22T04:34:22.834Z,17.42
2018-07-22T04:36:52.081Z,17.20
2018-07-22T04:39:21.305Z,15.23
2018-07-22T04:41:50.633Z,18.53
2018-07-22T04:44:19.887Z,15.90
2018-07-22T04:46:49.164Z,14.20
2018-07-22T04:49:18.404Z,13.80
2018-07-22T04:51:47.636Z,15.23
2018-07-22T04:54:16.860Z,13.13
2018-07-22T04:56:46.149Z,14.00
2018-07-22T04:59:15.425Z,14.60
2018-07-22T05:01:44.671Z,14.93
2018-07-22T05:04:13.923Z,11.80
2018-07-22T05:06:43.147Z,13.67
2018-07-22T05:09:13.312Z,13.60
2018-07-22T05:11:42.737Z,11.23
2018-07-22T05:14:13.432Z,12.73
2018-07-22T05:16:42.680Z,11.33
2018-07-22T05:19:11.899Z,13.10
2018-07-22T05:21:41.137Z,15.17
2018-07-22T05:24:10.356Z,16.90
2018-07-22T05:26:39.577Z,18.90
2018-07-22T05:29:08.874Z,15.43
2018-07-22T05:31:38.123Z,17.27
2018-07-22T05:34:07.434Z,16.53
2018-07-22T05:36:36.662Z,13.70
2018-07-22T05:39:09.947Z,13.47
2018-07-22T05:41:39.310Z,12.80
2018-07-22T05:44:08.584Z,13.17
2018-07-22T05:46:37.910Z,11.13
2018-07-22T05:49:07.164Z,10.72
2018-07-22T05:51:36.374Z,11.00
2018-07-22T05:54:05.846Z,11.57
2018-07-22T05:56:35.028Z,9.63
2018-07-22T05:59:04.297Z,10.53
2018-07-22T06:01:33.600Z,12.43
2018-07-22T06:33:33.932Z,10.83
2018-07-22T06:38:39.381Z,11.20
2018-07-22T06:41:08.639Z,10.27
2018-07-22T06:43:40.877Z,9.20
2018-07-22T06:46:10.827Z,8.83
2018-07-22T06:48:40.043Z,9.87
2018-07-22T06:51:09.254Z,9.67
2018-07-22T06:53:38.779Z,9.40
2018-07-22T06:56:08.012Z,9.27
2018-07-22T06:58:37.246Z,9.73
2018-07-22T07:01:07.085Z,10.05
2018-07-22T07:03:36.313Z,10.57
2018-07-22T07:06:05.578Z,11.40
2018-07-22T07:08:34.879Z,10.23
2018-07-22T07:11:04.088Z,10.03
2018-07-22T07:13:33.313Z,11.23
2018-07-22T07:16:02.588Z,12.03
2018-07-22T07:18:31.955Z,10.57
2018-07-22T07:21:01.189Z,11.80
2018-07-22T07:23:30.530Z,13.47
2018-07-22T07:25:59.794Z,11.47
2018-07-22T07:28:29.114Z,12.07
2018-07-22T07:30:58.338Z,11.27
2018-07-22T07:33:27.611Z,10.93
2018-07-22T07:35:56.868Z,10.40
2018-07-22T07:38:26.188Z,11.87
2018-07-22T07:40:55.495Z,10.60
2018-07-22T07:43:24.778Z,10.90
2018-07-22T07:45:53.998Z,11.10
2018-07-22T07:48:23.269Z,11.37
2018-07-22T07:50:52.556Z,11.33
2018-07-22T07:53:21.830Z,10.43
2018-07-22T07:55:51.106Z,9.93
2018-07-22T07:58:20.388Z,10.17
2018-07-22T08:00:50.797Z,12.10
2018-07-22T08:03:20.131Z,10.07
2018-07-22T08:05:49.437Z,8.97
2018-07-22T08:08:18.685Z,9.78
2018-07-22T08:10:47.977Z,9.73
2018-07-22T08:13:17.218Z,8.10
2018-07-22T08:15:46.548Z,7.73
2018-07-22T08:18:15.832Z,8.87
2018-07-22T08:20:45.064Z,8.43
2018-07-22T08:23:14.322Z,8.70
2018-07-22T08:25:43.590Z,9.30
2018-07-22T08:28:12.908Z,8.60
2018-07-22T08:30:42.158Z,9.17
2018-07-22T08:33:11.417Z,8.60
2018-07-22T08:35:40.662Z,8.17
2018-07-22T08:38:09.703Z,9.08
2018-07-22T08:40:38.972Z,9.70
2018-07-22T08:43:08.370Z,9.30
2018-07-22T08:45:37.357Z,9.05
2018-07-22T08:48:07.726Z,9.55
2018-07-22T08:50:37.026Z,9.83
2018-07-22T08:53:06.730Z,9.30
2018-07-22T08:55:36.237Z,8.93
2018-07-22T08:58:06.090Z,10.28
2018-07-22T09:00:35.379Z,9.98
2018-07-22T09:03:04.626Z,10.48
2018-07-22T09:05:33.888Z,9.63
2018-07-22T09:08:03.109Z,10.43
2018-07-22T09:10:32.383Z,10.70
2018-07-22T09:13:01.688Z,11.10
2018-07-22T09:15:30.953Z,11.57
2018-07-22T09:18:00.249Z,11.77
2018-07-22T09:20:29.526Z,11.22
2018-07-22T09:22:58.767Z,10.93
2018-07-22T09:25:28.040Z,9.60
2018-07-22T09:27:57.269Z,10.27
2018-07-22T09:30:26.546Z,9.40
2018-07-22T09:32:55.865Z,10.50
2018-07-22T09:35:25.127Z,10.03
2018-07-22T09:37:54.374Z,11.73
2018-07-22T09:40:23.657Z,9.43
2018-07-22T09:42:53.045Z,10.10
2018-07-22T09:45:22.341Z,9.75
2018-07-22T09:47:51.599Z,9.78
2018-07-22T09:50:20.888Z,8.87
2018-07-22T09:52:50.346Z,9.97
2018-07-22T09:55:19.643Z,9.90
2018-07-22T09:57:49.122Z,10.30
2018-07-22T10:00:23.864Z,10.72
2018-07-22T10:02:53.078Z,10.50
2018-07-22T10:05:22.308Z,11.80
2018-07-22T10:07:51.538Z,11.50
2018-07-22T10:10:20.782Z,11.12
2018-07-22T10:12:50.283Z,10.88
2018-07-22T10:15:19.525Z,11.83
2018-07-22T10:17:48.741Z,12.37
2018-07-22T10:20:18.037Z,13.40
2018-07-22T10:22:47.323Z,12.45
2018-07-22T10:25:16.563Z,14.43
2018-07-22T10:27:45.789Z,12.23
2018-07-22T10:30:15.023Z,13.47
2018-07-22T10:32:44.241Z,13.13
2018-07-22T11:02:42.295Z,13.98
2018-07-22T11:05:11.574Z,17.90
2018-07-22T11:07:40.867Z,16.97
2018-07-22T11:10:11.058Z,16.02
2018-07-22T11:12:40.407Z,14.25
2018-07-22T11:15:09.717Z,12.63
2018-07-22T11:17:38.997Z,15.03
2018-07-22T11:20:08.325Z,13.20
2018-07-22T11:22:37.571Z,12.70
2018-07-22T11:25:06.856Z,13.22
2018-07-22T11:27:36.160Z,12.83
2018-07-22T11:30:06.025Z,12.47
2018-07-22T11:32:35.266Z,13.13
2018-07-22T11:35:04.601Z,13.55
2018-07-22T11:37:33.890Z,13.25
2018-07-22T11:40:03.142Z,13.00
2018-07-22T11:42:32.402Z,12.10
2018-07-22T11:45:01.648Z,11.63
2018-07-22T11:47:30.957Z,12.82
2018-07-22T11:50:00.195Z,13.53
2018-07-22T11:52:29.433Z,13.53
2018-07-22T11:54:58.682Z,14.60
2018-07-22T11:57:27.934Z,11.40
2018-07-22T11:59:57.217Z,12.37
2018-07-22T12:02:26.516Z,11.73
2018-07-22T12:04:55.770Z,12.03
2018-07-22T12:07:25.031Z,12.13
2018-07-22T12:42:41.572Z,11.97
2018-07-22T12:47:48.875Z,6.85
2018-07-22T12:50:21.133Z,6.87
2018-07-22T12:52:51.492Z,6.80
2018-07-22T12:55:22.785Z,6.30
2018-07-22T12:57:53.093Z,6.33
2018-07-22T13:00:24.252Z,7.30
2018-07-22T13:02:54.781Z,5.58
2018-07-22T13:05:25.924Z,5.85
2018-07-22T13:07:56.634Z,6.30
2018-07-22T13:10:27.325Z,5.97
2018-07-22T13:12:57.840Z,5.87
2018-07-22T13:15:28.753Z,6.03
2018-07-22T13:17:59.075Z,6.00
2018-07-22T13:20:30.216Z,5.72
2018-07-22T13:23:00.764Z,6.53
2018-07-22T13:25:31.621Z,6.87
2018-07-22T13:28:02.449Z,6.10
2018-07-22T13:30:33.159Z,9.23
2018-07-22T13:33:04.880Z,6.00
2018-07-22T13:35:35.874Z,5.92
2018-07-22T13:38:07.417Z,6.95
2018-07-22T13:40:38.103Z,6.67
2018-07-22T13:43:09.986Z,5.22
2018-07-22T13:45:41.552Z,5.70
2018-07-22T13:48:11.963Z,5.28
2018-07-22T13:50:42.769Z,5.72
2018-07-22T13:53:13.323Z,5.35
2018-07-22T13:55:43.744Z,5.08
2018-07-22T13:58:14.053Z,5.23
2018-07-22T14:00:44.733Z,4.93
2018-07-22T14:03:14.983Z,5.55
2018-07-22T14:05:45.888Z,6.08
2018-07-22T14:08:17.495Z,5.62
2018-07-22T14:10:47.813Z,5.00
2018-07-22T14:13:18.969Z,6.00
2018-07-22T14:15:50.985Z,5.80
2018-07-22T14:18:21.100Z,5.90
2018-07-22T14:20:51.873Z,6.03
2018-07-22T14:23:21.958Z,6.95
2018-07-22T14:25:51.292Z,8.20
2018-07-22T14:28:20.557Z,7.03
2018-07-22T14:30:49.871Z,7.70
2018-07-22T14:33:19.118Z,6.75
2018-07-22T14:35:48.410Z,7.37
2018-07-22T14:38:17.656Z,6.17
2018-07-22T14:40:46.958Z,5.93
2018-07-22T14:43:16.124Z,6.17
2018-07-22T14:45:45.363Z,6.00
2018-07-22T14:48:14.660Z,6.50
2018-07-22T14:50:43.923Z,7.87
2018-07-22T14:53:13.154Z,6.03
2018-07-22T14:55:42.387Z,6.80
2018-07-22T14:58:11.652Z,6.35
2018-07-22T15:00:40.887Z,7.30
2018-07-22T15:03:10.131Z,6.63
2018-07-22T15:05:39.382Z,6.10
2018-07-22T15:08:08.616Z,6.42
2018-07-22T15:10:37.870Z,6.08
2018-07-22T15:13:07.149Z,7.03
2018-07-22T15:15:36.391Z,8.50
2018-07-22T15:18:05.662Z,8.97
2018-07-22T15:20:34.944Z,9.45
2018-07-22T15:23:04.166Z,7.78
2018-07-22T15:25:33.397Z,8.25
2018-07-22T15:28:02.676Z,8.57
2018-07-22T15:30:31.962Z,6.77
2018-07-22T15:33:01.188Z,6.33
2018-07-22T15:35:30.416Z,5.30
2018-07-22T15:37:59.645Z,6.10
2018-07-22T15:40:28.862Z,6.00
2018-07-22T15:42:58.187Z,5.90
2018-07-22T15:45:28.657Z,6.83
2018-07-22T15:47:57.895Z,7.28
2018-07-22T15:50:27.148Z,6.97
2018-07-22T15:52:56.416Z,8.43
2018-07-22T15:55:25.835Z,7.46
2018-07-22T15:57:55.006Z,7.60
2018-07-22T16:00:24.263Z,8.58
2018-07-22T16:02:53.547Z,6.22
2018-07-22T16:05:22.858Z,7.03
2018-07-22T16:07:52.207Z,7.85
2018-07-22T16:10:21.601Z,7.17
2018-07-22T16:12:50.917Z,6.57
2018-07-22T16:15:20.262Z,7.23
2018-07-22T16:17:49.654Z,5.67
2018-07-22T16:20:19.046Z,7.17
2018-07-22T16:22:48.395Z,6.10
2018-07-22T16:25:18.710Z,6.55
2018-07-22T16:27:48.045Z,7.83
2018-07-22T16:30:17.407Z,7.63
2018-07-22T16:32:46.672Z,9.73
2018-07-22T16:35:15.898Z,8.25
2018-07-22T16:37:45.158Z,8.58
2018-07-22T16:40:14.397Z,9.60
2018-07-22T16:42:43.726Z,9.50
2018-07-22T16:45:13.008Z,8.70
2018-07-22T16:47:42.270Z,9.35
2018-07-22T16:50:11.509Z,9.20
2018-07-22T16:52:40.826Z,9.53
2018-07-22T16:55:10.124Z,8.20
2018-07-22T16:57:39.403Z,9.43
2018-07-22T17:00:08.689Z,9.78
2018-07-22T17:02:38.010Z,9.17
2018-07-22T17:05:07.216Z,9.63
2018-07-22T17:07:36.451Z,9.90
2018-07-22T17:10:05.714Z,11.80
2018-07-22T17:12:34.972Z,10.53
2018-07-22T17:15:04.252Z,10.53
2018-07-22T17:17:33.523Z,10.27
2018-07-22T17:20:02.774Z,10.10
2018-07-22T17:22:32.023Z,10.05
2018-07-22T17:25:01.286Z,8.98
2018-07-22T17:27:30.509Z,9.60
2018-07-22T17:29:59.725Z,8.90
2018-07-22T17:32:28.955Z,9.93
2018-07-22T17:34:58.195Z,10.38
2018-07-22T17:37:28.189Z,9.47
2018-07-22T17:40:01.374Z,10.47
2018-07-22T17:42:32.205Z,9.28
2018-07-22T17:45:01.444Z,10.78
2018-07-22T17:47:31.135Z,11.68
2018-07-22T17:50:00.398Z,10.00
2018-07-22T17:52:29.629Z,10.75
2018-07-22T17:54:58.886Z,11.07
2018-07-22T17:57:28.163Z,12.33
2018-07-22T17:59:57.394Z,11.60
2018-07-22T18:02:26.618Z,10.20
2018-07-22T18:04:55.933Z,12.10
2018-07-22T18:07:25.097Z,13.07
2018-07-22T18:09:54.306Z,11.80
2018-07-22T18:12:23.593Z,10.82
2018-07-22T18:14:52.815Z,11.03
2018-07-22T18:17:22.061Z,11.37
2018-07-22T18:19:51.303Z,11.00
2018-07-22T18:22:20.564Z,12.70
2018-07-22T18:24:49.806Z,11.97
2018-07-22T18:27:19.074Z,14.25
2018-07-22T18:29:48.314Z,13.57
2018-07-22T18:32:17.571Z,12.77
2018-07-22T18:34:46.815Z,11.83
2018-07-22T18:37:16.185Z,12.13
2018-07-22T18:39:45.338Z,11.65
2018-07-22T18:42:14.609Z,11.43
2018-07-22T18:44:44.092Z,11.37
2018-07-22T18:47:13.347Z,11.08
2018-07-22T18:49:42.648Z,12.20
2018-07-22T18:52:11.907Z,12.45
2018-07-22T18:54:41.108Z,15.40
2018-07-22T18:57:10.546Z,12.40
2018-07-22T18:59:39.835Z,12.93
2018-07-22T19:02:09.455Z,12.65
2018-07-22T19:04:39.685Z,13.48
2018-07-22T19:07:08.937Z,13.10
2018-07-22T19:09:38.176Z,13.10
2018-07-22T19:12:07.404Z,12.82
2018-07-22T19:14:36.659Z,11.65
2018-07-22T19:17:05.895Z,13.50
2018-07-22T19:19:35.371Z,10.23
2018-07-22T19:22:04.638Z,11.80
2018-07-22T19:24:33.912Z,12.47
2018-07-22T19:27:03.129Z,11.80
2018-07-22T19:29:32.409Z,14.57
2018-07-22T19:32:01.642Z,13.80
2018-07-22T19:34:30.966Z,11.00
2018-07-22T19:37:00.199Z,10.97
2018-07-22T19:39:29.456Z,11.22
2018-07-22T19:41:58.730Z,10.87
2018-07-22T19:44:28.007Z,11.63
2018-07-22T19:46:57.225Z,11.50
2018-07-22T19:49:26.515Z,13.03
2018-07-22T19:51:55.790Z,11.83
2018-07-22T19:54:25.027Z,13.28
2018-07-22T19:56:54.294Z,12.40
2018-07-22T19:59:23.545Z,11.20
2018-07-22T20:01:52.754Z,12.15
2018-07-22T20:04:22.054Z,12.50
2018-07-22T20:06:51.341Z,12.83
2018-07-22T20:09:20.630Z,13.43
2018-07-22T20:11:49.848Z,12.88
2018-07-22T20:14:19.112Z,12.10
2018-07-22T20:16:48.356Z,14.43
2018-07-22T20:19:17.610Z,12.15
2018-07-22T20:21:46.868Z,13.50
2018-07-22T20:24:17.227Z,12.33
2018-07-22T20:26:46.402Z,12.25
2018-07-22T20:29:15.665Z,13.33
2018-07-22T20:31:44.941Z,12.30
2018-07-22T20:34:14.146Z,12.50
2018-07-22T20:36:43.375Z,12.55
2018-07-22T20:39:12.811Z,11.70
2018-07-22T20:41:42.235Z,12.58
2018-07-22T20:44:11.474Z,12.73
2018-07-22T20:46:40.721Z,15.63
2018-07-22T20:49:09.952Z,11.95
2018-07-22T20:51:39.221Z,12.10
2018-07-22T20:54:08.451Z,12.53
2018-07-22T20:56:37.724Z,12.93
2018-07-22T20:59:06.946Z,12.88
2018-07-22T21:01:36.174Z,12.68
2018-07-22T21:04:05.457Z,12.98
2018-07-22T21:06:34.732Z,13.07
2018-07-22T21:09:05.345Z,12.67
2018-07-22T21:11:51.319Z,13.30
2018-07-22T21:14:20.574Z,13.70
2018-07-22T21:16:49.814Z,12.83
2018-07-22T21:19:19.066Z,16.50
2018-07-22T21:21:48.301Z,13.60
2018-07-22T21:24:17.539Z,13.57
2018-07-22T21:26:46.837Z,13.60
2018-07-22T21:29:16.067Z,13.67
2018-07-22T21:31:45.306Z,15.38
2018-07-22T21:34:14.550Z,16.52
2018-07-22T21:36:43.827Z,13.90
2018-07-22T21:39:13.055Z,14.35
2018-07-22T21:41:42.309Z,13.50
2018-07-22T21:44:11.549Z,12.55
2018-07-22T21:46:40.791Z,12.93
2018-07-22T21:49:10.056Z,11.93
2018-07-22T21:51:39.297Z,13.10
2018-07-22T21:54:08.897Z,12.65
2018-07-22T21:56:38.148Z,12.80
2018-07-22T21:59:07.618Z,13.03
2018-07-22T22:01:36.905Z,15.80
2018-07-22T22:04:06.156Z,13.13
2018-07-22T22:06:35.384Z,13.77
2018-07-22T22:09:05.771Z,13.98
2018-07-22T22:11:34.999Z,13.83
2018-07-22T22:14:04.248Z,13.77
2018-07-22T22:16:33.499Z,13.03
2018-07-22T22:19:02.747Z,13.18
2018-07-22T22:21:31.999Z,13.28
2018-07-22T22:24:01.273Z,13.35
2018-07-22T22:26:30.537Z,13.87
2018-07-22T22:28:59.829Z,13.57
2018-07-22T22:31:29.106Z,14.47
2018-07-22T22:33:58.316Z,14.83
2018-07-22T22:36:27.554Z,13.60
2018-07-22T22:38:56.782Z,13.77
2018-07-22T22:41:26.029Z,13.65
2018-07-22T22:43:55.254Z,13.33
2018-07-22T22:46:24.489Z,13.97
2018-07-22T22:48:53.747Z,14.43
2018-07-22T22:51:23.048Z,13.93
2018-07-22T22:53:52.347Z,14.97
2018-07-22T22:56:21.582Z,15.83
2018-07-22T22:59:07.731Z,13.97
2018-07-22T23:01:37.212Z,13.50
2018-07-22T23:04:06.599Z,13.90
2018-07-22T23:06:35.822Z,14.63
2018-07-22T23:09:10.037Z,13.67
2018-07-22T23:11:39.550Z,13.00
2018-07-22T23:14:08.816Z,13.37
2018-07-22T23:16:38.817Z,15.50
2018-07-22T23:19:08.178Z,13.37
2018-07-22T23:21:37.426Z,13.83
2018-07-22T23:24:06.686Z,13.10
2018-07-22T23:26:35.906Z,12.77
2018-07-22T23:29:06.267Z,14.74
2018-07-22T23:31:35.481Z,13.13
2018-07-22T23:34:04.719Z,13.95
2018-07-22T23:36:33.963Z,13.57
2018-07-22T23:39:03.242Z,14.37
2018-07-22T23:41:32.483Z,13.90
2018-07-22T23:44:01.767Z,14.67
2018-07-22T23:46:31.013Z,14.60
2018-07-22T23:49:00.280Z,15.07
2018-07-22T23:51:29.541Z,14.97
2018-07-22T23:53:58.799Z,18.60
2018-07-22T23:56:28.024Z,14.53
2018-07-22T23:58:57.274Z,14.47
